Time;durP1;ratioP1;P1;durP2;ratioP2;P2;SDS_P1;SDS_P2;PMS_P1;PMS_P2;Temp;Humidity;BMP_temperature;BMP_pressure;BME280_temperature;BME280_humidity;BME280_pressure;Samples;Min_cycle;Max_cycle;Signal;HPM_P1;HPM_P2
2023/12/02 00:02:02;;;;;;;28.53;13.67;;;;;;;;;;4970790;28;20558;-66
2023/12/02 00:04:27;;;;;;;25.37;12.63;;;;;;;;;;4962214;28;20192;-67
2023/12/02 00:06:53;;;;;;;27.07;13.40;;;;;;;;;;4963114;28;20294;-66
2023/12/02 00:09:18;;;;;;;28.07;13.73;;;;;;;;;;4968299;28;20231;-66
2023/12/02 00:11:43;;;;;;;23.93;12.13;;;;;;;;;;4956749;28;20208;-66
2023/12/02 00:14:08;;;;;;;31.23;13.07;;;;;;;;;;4967839;28;20176;-67
2023/12/02 00:16:33;;;;;;;26.37;13.07;;;;;;;;;;4972315;28;20184;-67
2023/12/02 00:18:59;;;;;;;29.67;13.13;;;;;;;;;;4970513;28;20267;-67
2023/12/02 00:21:24;;;;;;;24.27;12.27;;;;;;;;;;4962950;28;20203;-67
2023/12/02 00:23:49;;;;;;;23.93;11.80;;;;;;;;;;4969398;28;20180;-66
2023/12/02 00:26:14;;;;;;;25.10;13.20;;;;;;;;;;4972034;28;20207;-66
2023/12/02 00:28:39;;;;;;;27.10;12.40;;;;;;;;;;4965874;28;20728;-66
2023/12/02 00:31:05;;;;;;;25.27;11.97;;;;;;;;;;4969960;28;20204;-66
2023/12/02 00:33:30;;;;;;;29.90;14.07;;;;;;;;;;4964594;28;20189;-66
2023/12/02 00:35:56;;;;;;;24.03;11.87;;;;;;;;;;4975590;28;20183;-65
2023/12/02 00:38:21;;;;;;;25.50;11.87;;;;;;;;;;4965711;28;20662;-66
2023/12/02 00:40:46;;;;;;;27.23;11.57;;;;;;;;;;4971041;28;20201;-65
2023/12/02 00:43:11;;;;;;;25.80;12.50;;;;;;;;;;4975224;28;20195;-65
2023/12/02 00:45:36;;;;;;;27.03;12.60;;;;;;;;;;4969152;28;20220;-66
2023/12/02 00:48:02;;;;;;;27.53;11.60;;;;;;;;;;4974369;28;20271;-66
2023/12/02 00:50:27;;;;;;;24.80;11.97;;;;;;;;;;4975423;28;20180;-66
2023/12/02 00:52:52;;;;;;;28.50;12.00;;;;;;;;;;4974454;28;20264;-66
2023/12/02 00:55:17;;;;;;;30.20;13.43;;;;;;;;;;4974506;28;20198;-66
2023/12/02 00:57:42;;;;;;;29.60;13.43;;;;;;;;;;4963732;28;20629;-65
2023/12/02 01:00:08;;;;;;;24.47;11.77;;;;;;;;;;4971978;28;20263;-66
2023/12/02 01:02:33;;;;;;;23.20;12.37;;;;;;;;;;4972886;28;20218;-65
2023/12/02 01:04:59;;;;;;;20.90;11.13;;;;;;;;;;4975405;28;20164;-66
2023/12/02 01:07:24;;;;;;;25.17;12.50;;;;;;;;;;4975536;28;20273;-66
2023/12/02 01:09:49;;;;;;;25.13;12.90;;;;;;;;;;4971811;28;20644;-65
2023/12/02 01:12:14;;;;;;;23.87;11.40;;;;;;;;;;4969758;28;20634;-66
2023/12/02 01:14:39;;;;;;;26.47;11.97;;;;;;;;;;4966281;28;20591;-65
2023/12/02 01:17:05;;;;;;;22.23;11.20;;;;;;;;;;4971530;28;20181;-66
2023/12/02 01:19:30;;;;;;;21.37;11.27;;;;;;;;;;4973221;28;20660;-65
2023/12/02 01:21:55;;;;;;;22.60;11.13;;;;;;;;;;4971219;28;20223;-66
2023/12/02 01:24:20;;;;;;;21.73;10.33;;;;;;;;;;4966420;28;20177;-65
2023/12/02 01:26:45;;;;;;;24.47;11.27;;;;;;;;;;4966726;28;20563;-65
2023/12/02 01:29:10;;;;;;;22.50;10.60;;;;;;;;;;4972546;28;20192;-66
2023/12/02 01:31:36;;;;;;;22.00;11.10;;;;;;;;;;4973642;28;20216;-66
2023/12/02 01:34:01;;;;;;;28.00;12.23;;;;;;;;;;4965420;28;20262;-66
2023/12/02 01:36:26;;;;;;;25.00;12.57;;;;;;;;;;4971194;28;20188;-65
2023/12/02 01:38:51;;;;;;;26.33;12.03;;;;;;;;;;4971787;28;20188;-65
2023/12/02 01:41:16;;;;;;;27.13;13.27;;;;;;;;;;4973498;28;20195;-65
2023/12/02 01:43:42;;;;;;;26.57;12.47;;;;;;;;;;4974976;28;20679;-65
2023/12/02 01:46:07;;;;;;;29.53;12.00;;;;;;;;;;4971961;28;20228;-65
2023/12/02 01:48:33;;;;;;;29.23;13.20;;;;;;;;;;4972312;28;20495;-66
2023/12/02 01:50:59;;;;;;;23.17;12.30;;;;;;;;;;4965409;28;20228;-66
2023/12/02 01:53:24;;;;;;;28.33;12.90;;;;;;;;;;4969595;28;20211;-65
2023/12/02 01:55:49;;;;;;;25.50;12.87;;;;;;;;;;4969931;28;20184;-66
2023/12/02 01:58:14;;;;;;;27.57;13.23;;;;;;;;;;4974103;28;20267;-66
2023/12/02 02:00:39;;;;;;;29.83;13.33;;;;;;;;;;4988581;23;20212;-67
2023/12/02 02:03:05;;;;;;;28.73;13.07;;;;;;;;;;4989300;28;20262;-67
2023/12/02 02:05:30;;;;;;;27.97;13.07;;;;;;;;;;4992887;28;20556;-65
2023/12/02 02:07:56;;;;;;;23.80;11.70;;;;;;;;;;4992808;28;20176;-65
2023/12/02 02:10:21;;;;;;;30.07;13.07;;;;;;;;;;4992785;28;20255;-65
2023/12/02 02:12:46;;;;;;;23.13;12.17;;;;;;;;;;4991439;28;20607;-66
2023/12/02 02:15:12;;;;;;;31.50;13.00;;;;;;;;;;4992006;28;20175;-66
2023/12/02 02:17:37;;;;;;;22.73;12.37;;;;;;;;;;4991333;28;20218;-65
2023/12/02 02:20:04;;;;;;;25.47;13.27;;;;;;;;;;4981194;28;20633;-66
2023/12/02 02:22:29;;;;;;;26.83;12.43;;;;;;;;;;4990471;28;20203;-65
2023/12/02 02:24:54;;;;;;;27.83;12.10;;;;;;;;;;4991792;28;20249;-66
2023/12/02 02:27:19;;;;;;;25.23;12.70;;;;;;;;;;4989541;28;20282;-66
2023/12/02 02:29:45;;;;;;;27.80;12.37;;;;;;;;;;4990273;28;20325;-67
2023/12/02 02:32:10;;;;;;;25.07;11.50;;;;;;;;;;4992210;28;20274;-66
2023/12/02 02:34:38;;;;;;;27.37;12.47;;;;;;;;;;4986984;28;20188;-66
2023/12/02 02:37:03;;;;;;;30.80;13.30;;;;;;;;;;4982398;28;20211;-66
2023/12/02 02:39:28;;;;;;;24.60;12.00;;;;;;;;;;4988652;28;20184;-66
2023/12/02 02:41:54;;;;;;;32.30;13.53;;;;;;;;;;4988044;28;20200;-66
2023/12/02 02:44:19;;;;;;;26.27;12.40;;;;;;;;;;4991154;28;20563;-66
2023/12/02 02:46:44;;;;;;;31.00;13.17;;;;;;;;;;4991476;28;20199;-66
2023/12/02 02:49:10;;;;;;;31.57;14.10;;;;;;;;;;4990455;28;20254;-66
2023/12/02 02:51:35;;;;;;;28.63;12.40;;;;;;;;;;4990655;28;20222;-67
2023/12/02 02:54:00;;;;;;;32.37;12.73;;;;;;;;;;4990572;28;20175;-67
2023/12/02 02:56:25;;;;;;;29.70;13.97;;;;;;;;;;4983621;28;20186;-66
2023/12/02 02:58:51;;;;;;;27.17;12.13;;;;;;;;;;4988749;28;20647;-66
2023/12/02 03:01:16;;;;;;;28.30;12.73;;;;;;;;;;4990878;28;20227;-66
2023/12/02 03:03:41;;;;;;;28.97;12.50;;;;;;;;;;4996777;28;20191;-65
2023/12/02 03:06:07;;;;;;;24.77;12.73;;;;;;;;;;4998887;28;20214;-66
2023/12/02 03:08:32;;;;;;;30.17;13.57;;;;;;;;;;4996988;28;20184;-66
2023/12/02 03:10:57;;;;;;;29.40;13.33;;;;;;;;;;4992990;28;20663;-66
2023/12/02 03:13:22;;;;;;;25.53;11.83;;;;;;;;;;4991848;28;20198;-66
2023/12/02 03:15:48;;;;;;;29.03;13.57;;;;;;;;;;4985123;28;20210;-65
2023/12/02 03:18:13;;;;;;;33.90;15.00;;;;;;;;;;4989503;28;20184;-66
2023/12/02 03:20:38;;;;;;;30.53;13.73;;;;;;;;;;4988466;28;20270;-64
2023/12/02 03:23:03;;;;;;;31.27;12.83;;;;;;;;;;4988525;28;20599;-66
2023/12/02 03:25:28;;;;;;;30.80;12.57;;;;;;;;;;4990771;28;20183;-66
2023/12/02 03:27:54;;;;;;;27.87;12.53;;;;;;;;;;4991344;28;20191;-66
2023/12/02 03:30:19;;;;;;;27.13;11.90;;;;;;;;;;4995794;28;21844;-65
2023/12/02 03:32:44;;;;;;;29.67;13.27;;;;;;;;;;4997952;28;20206;-66
2023/12/02 03:35:09;;;;;;;26.33;13.77;;;;;;;;;;4999820;28;20266;-65
2023/12/02 03:37:36;;;;;;;34.13;14.33;;;;;;;;;;5009655;28;20175;-66
2023/12/02 03:40:01;;;;;;;27.10;12.87;;;;;;;;;;4988866;28;20220;-66
2023/12/02 03:42:26;;;;;;;28.70;12.63;;;;;;;;;;4988179;28;20195;-66
2023/12/02 03:44:51;;;;;;;29.33;12.57;;;;;;;;;;4995167;28;20187;-65
2023/12/02 03:47:17;;;;;;;31.83;13.53;;;;;;;;;;4994642;28;20203;-66
2023/12/02 03:49:42;;;;;;;34.57;15.20;;;;;;;;;;4993959;28;20705;-65
2023/12/02 03:52:08;;;;;;;31.60;14.23;;;;;;;;;;4994546;28;20266;-65
2023/12/02 03:54:33;;;;;;;31.60;14.43;;;;;;;;;;4995987;28;20186;-67
2023/12/02 03:56:58;;;;;;;27.90;12.83;;;;;;;;;;4993387;28;20629;-65
2023/12/02 03:59:23;;;;;;;34.03;15.13;;;;;;;;;;4991271;28;20195;-66
2023/12/02 04:01:48;;;;;;;29.67;13.77;;;;;;;;;;4991525;28;20211;-65
2023/12/02 04:04:14;;;;;;;33.23;13.77;;;;;;;;;;4991101;28;20210;-66
2023/12/02 04:06:39;;;;;;;36.40;15.10;;;;;;;;;;4990307;28;20294;-66
2023/12/02 04:09:05;;;;;;;27.90;13.50;;;;;;;;;;4993148;28;20642;-66
2023/12/02 04:11:30;;;;;;;32.43;13.63;;;;;;;;;;4988335;28;20214;-66
2023/12/02 04:13:56;;;;;;;33.03;13.67;;;;;;;;;;4991091;28;20188;-66
2023/12/02 04:16:21;;;;;;;30.87;14.50;;;;;;;;;;4994088;28;20551;-66
2023/12/02 04:18:47;;;;;;;33.83;14.77;;;;;;;;;;4989675;28;20188;-66
2023/12/02 04:21:12;;;;;;;29.57;13.83;;;;;;;;;;4993330;28;20203;-66
2023/12/02 04:23:38;;;;;;;30.33;14.00;;;;;;;;;;4994492;28;20281;-66
2023/12/02 04:26:03;;;;;;;32.33;13.07;;;;;;;;;;4994366;28;20563;-67
2023/12/02 04:28:28;;;;;;;30.27;13.00;;;;;;;;;;4991174;28;20196;-67
2023/12/02 04:30:53;;;;;;;38.97;15.23;;;;;;;;;;4989011;28;20202;-67
2023/12/02 04:33:18;;;;;;;33.07;14.40;;;;;;;;;;4991574;28;20182;-66
2023/12/02 04:35:45;;;;;;;39.60;16.23;;;;;;;;;;4994112;28;20183;-66
2023/12/02 04:38:10;;;;;;;32.50;14.67;;;;;;;;;;4992047;28;20206;-66
2023/12/02 04:40:36;;;;;;;40.87;15.60;;;;;;;;;;4993451;28;20608;-67
2023/12/02 04:43:01;;;;;;;37.93;15.10;;;;;;;;;;4993587;28;20221;-67
2023/12/02 04:45:26;;;;;;;35.53;15.67;;;;;;;;;;4990455;28;20187;-67
2023/12/02 04:47:52;;;;;;;36.43;15.63;;;;;;;;;;4993381;28;20197;-67
2023/12/02 04:50:17;;;;;;;34.50;16.03;;;;;;;;;;4988061;28;20179;-66
2023/12/02 04:52:43;;;;;;;34.77;14.60;;;;;;;;;;5004677;28;20278;-67
2023/12/02 04:55:09;;;;;;;31.83;14.40;;;;;;;;;;4989597;28;20203;-66
2023/12/02 04:57:34;;;;;;;36.67;16.37;;;;;;;;;;4992775;28;20253;-65
2023/12/02 04:59:59;;;;;;;37.00;16.37;;;;;;;;;;4993257;28;20175;-65
2023/12/02 05:02:25;;;;;;;31.93;13.30;;;;;;;;;;4992154;28;20239;-66
2023/12/02 05:04:50;;;;;;;35.97;16.07;;;;;;;;;;4992174;28;20183;-66
2023/12/02 05:07:15;;;;;;;35.77;14.87;;;;;;;;;;4993456;28;20209;-66
2023/12/02 05:09:40;;;;;;;34.33;14.83;;;;;;;;;;4986306;28;20176;-65
2023/12/02 05:12:06;;;;;;;39.33;15.40;;;;;;;;;;4987939;28;20286;-66
2023/12/02 05:14:31;;;;;;;37.70;16.10;;;;;;;;;;4993786;28;20190;-66
2023/12/02 05:16:57;;;;;;;34.97;14.70;;;;;;;;;;4989246;28;20187;-66
2023/12/02 05:19:22;;;;;;;36.93;16.27;;;;;;;;;;4992465;28;20179;-66
2023/12/02 05:21:47;;;;;;;39.30;16.17;;;;;;;;;;4992944;28;20200;-66
2023/12/02 05:24:12;;;;;;;42.60;16.93;;;;;;;;;;4993271;28;20187;-66
2023/12/02 05:26:37;;;;;;;33.10;14.53;;;;;;;;;;4991764;28;20345;-65
2023/12/02 05:29:03;;;;;;;38.87;14.57;;;;;;;;;;4985186;28;20180;-66
2023/12/02 05:31:28;;;;;;;39.73;16.83;;;;;;;;;;4989113;28;20204;-65
2023/12/02 05:33:53;;;;;;;32.50;14.33;;;;;;;;;;4989442;28;20223;-65
2023/12/02 05:36:18;;;;;;;37.87;14.90;;;;;;;;;;4992085;28;20206;-66
2023/12/02 05:38:43;;;;;;;39.80;16.17;;;;;;;;;;4991008;28;20254;-66
2023/12/02 05:41:09;;;;;;;38.17;15.83;;;;;;;;;;4990855;28;20202;-66
2023/12/02 05:43:34;;;;;;;38.73;15.90;;;;;;;;;;4992982;28;20528;-66
2023/12/02 05:45:59;;;;;;;36.73;16.30;;;;;;;;;;4993546;28;20227;-66
2023/12/02 05:48:24;;;;;;;38.87;15.63;;;;;;;;;;4988746;28;20177;-65
2023/12/02 05:50:50;;;;;;;34.63;14.87;;;;;;;;;;4986181;28;20219;-66
2023/12/02 05:53:15;;;;;;;32.70;15.53;;;;;;;;;;5005076;28;20249;-66
2023/12/02 05:55:40;;;;;;;35.93;15.40;;;;;;;;;;4987083;28;20175;-66
2023/12/02 05:58:05;;;;;;;34.50;15.33;;;;;;;;;;4991213;28;20604;-67
2023/12/02 06:00:32;;;;;;;29.67;14.17;;;;;;;;;;4991847;28;20262;-66
2023/12/02 06:02:57;;;;;;;33.60;14.33;;;;;;;;;;4991523;28;20601;-67
2023/12/02 06:05:22;;;;;;;38.40;16.53;;;;;;;;;;4988753;28;20191;-66
2023/12/02 06:07:47;;;;;;;31.80;14.93;;;;;;;;;;4986511;28;20204;-67
2023/12/02 06:10:13;;;;;;;34.70;14.50;;;;;;;;;;4990165;28;20211;-66
2023/12/02 06:12:38;;;;;;;35.47;15.23;;;;;;;;;;4992190;28;20637;-65
2023/12/02 06:15:03;;;;;;;40.87;14.67;;;;;;;;;;4991873;28;20172;-65
2023/12/02 06:17:29;;;;;;;37.00;14.60;;;;;;;;;;4992681;28;20190;-66
2023/12/02 06:19:54;;;;;;;37.00;14.20;;;;;;;;;;4991038;28;20226;-65
2023/12/02 06:22:19;;;;;;;33.90;14.47;;;;;;;;;;4990162;28;20212;-65
2023/12/02 06:24:45;;;;;;;36.67;14.13;;;;;;;;;;4984171;28;20227;-68
2023/12/02 06:27:10;;;;;;;38.20;14.97;;;;;;;;;;4988681;28;20286;-66
2023/12/02 06:29:35;;;;;;;32.73;13.70;;;;;;;;;;4990776;28;20250;-66
2023/12/02 06:32:00;;;;;;;30.63;14.77;;;;;;;;;;4989945;28;20196;-66
2023/12/02 06:34:25;;;;;;;33.90;14.13;;;;;;;;;;4989681;28;20670;-66
2023/12/02 06:36:51;;;;;;;39.87;17.67;;;;;;;;;;4991148;28;20180;-66
2023/12/02 06:39:16;;;;;;;40.30;16.27;;;;;;;;;;4991540;28;20195;-66
2023/12/02 06:41:41;;;;;;;37.47;15.97;;;;;;;;;;4990262;28;20218;-66
2023/12/02 06:44:07;;;;;;;38.13;16.40;;;;;;;;;;4990476;28;20202;-66
2023/12/02 06:46:32;;;;;;;40.13;16.60;;;;;;;;;;4990810;28;20279;-66
2023/12/02 06:48:57;;;;;;;39.53;15.80;;;;;;;;;;4990824;28;20168;-65
2023/12/02 06:51:28;;;;;;;41.67;16.97;;;;;;;;;;4988365;28;20198;-66
2023/12/02 06:53:53;;;;;;;38.53;15.87;;;;;;;;;;5002323;28;20194;-66
2023/12/02 06:56:19;;;;;;;41.83;16.50;;;;;;;;;;4987555;28;20175;-66
2023/12/02 06:58:44;;;;;;;34.37;15.37;;;;;;;;;;4991748;28;20549;-66
2023/12/02 07:01:09;;;;;;;40.37;18.10;;;;;;;;;;4980805;28;20204;-66
2023/12/02 07:03:36;;;;;;;35.17;14.50;;;;;;;;;;4988829;28;20262;-66
2023/12/02 07:06:01;;;;;;;38.40;15.80;;;;;;;;;;4988614;28;20200;-66
2023/12/02 07:08:27;;;;;;;42.97;16.13;;;;;;;;;;4990960;28;20176;-67
2023/12/02 07:10:52;;;;;;;37.30;15.67;;;;;;;;;;4987675;28;20200;-66
2023/12/02 07:13:17;;;;;;;41.00;16.83;;;;;;;;;;4991042;28;20577;-67
2023/12/02 07:15:42;;;;;;;45.33;17.60;;;;;;;;;;4990623;28;20267;-66
2023/12/02 07:18:08;;;;;;;37.27;16.07;;;;;;;;;;4991153;28;20175;-66
2023/12/02 07:20:33;;;;;;;40.20;18.03;;;;;;;;;;4988590;28;20225;-67
2023/12/02 07:22:59;;;;;;;44.47;17.70;;;;;;;;;;4980931;28;20210;-66
2023/12/02 07:25:24;;;;;;;47.13;17.90;;;;;;;;;;4988925;28;20276;-67
2023/12/02 07:27:49;;;;;;;40.07;16.53;;;;;;;;;;4990858;28;20195;-66
2023/12/02 07:30:14;;;;;;;41.83;16.83;;;;;;;;;;4989642;28;20226;-66
2023/12/02 07:32:40;;;;;;;37.63;17.40;;;;;;;;;;5004703;28;20778;-66
2023/12/02 07:35:06;;;;;;;38.57;16.97;;;;;;;;;;4990151;28;20595;-65
2023/12/02 07:37:31;;;;;;;44.03;17.97;;;;;;;;;;4988684;28;20184;-66
2023/12/02 07:39:57;;;;;;;39.77;17.10;;;;;;;;;;4986938;28;20184;-66
2023/12/02 07:42:22;;;;;;;44.13;18.60;;;;;;;;;;4985986;28;20247;-66
2023/12/02 07:44:47;;;;;;;40.97;16.73;;;;;;;;;;4986440;28;20190;-66
2023/12/02 07:47:12;;;;;;;39.33;16.80;;;;;;;;;;4991139;28;20207;-66
2023/12/02 07:49:37;;;;;;;41.23;18.00;;;;;;;;;;4985097;28;20183;-65
2023/12/02 07:52:03;;;;;;;43.43;17.47;;;;;;;;;;4984649;28;20207;-65
2023/12/02 07:54:28;;;;;;;44.90;17.23;;;;;;;;;;4988554;28;20636;-65
2023/12/02 07:56:53;;;;;;;43.80;16.77;;;;;;;;;;4990260;28;20192;-66
2023/12/02 07:59:19;;;;;;;38.70;15.90;;;;;;;;;;4984650;28;20274;-65
2023/12/02 08:01:44;;;;;;;38.77;16.77;;;;;;;;;;5044659;23;20238;-66
2023/12/02 08:04:09;;;;;;;42.83;17.50;;;;;;;;;;4982273;28;20188;-67
2023/12/02 08:06:35;;;;;;;42.83;16.17;;;;;;;;;;4988088;28;20695;-67
2023/12/02 08:09:00;;;;;;;32.73;15.67;;;;;;;;;;4981584;28;20255;-67
2023/12/02 08:11:26;;;;;;;40.67;15.57;;;;;;;;;;4986294;28;20298;-66
2023/12/02 08:13:51;;;;;;;36.97;16.07;;;;;;;;;;4976433;28;20187;-67
2023/12/02 08:16:17;;;;;;;43.40;16.13;;;;;;;;;;4986570;28;20183;-67
2023/12/02 08:18:42;;;;;;;38.30;15.87;;;;;;;;;;4985321;28;20296;-66
2023/12/02 08:21:07;;;;;;;40.13;18.07;;;;;;;;;;4981014;28;20652;-66
2023/12/02 08:23:32;;;;;;;46.57;17.10;;;;;;;;;;4989449;28;20679;-66
2023/12/02 08:25:58;;;;;;;37.77;16.47;;;;;;;;;;4985761;28;20235;-67
2023/12/02 08:28:23;;;;;;;43.80;17.10;;;;;;;;;;4972754;28;20207;-67
2023/12/02 08:30:48;;;;;;;46.77;18.73;;;;;;;;;;4982068;28;20653;-67
2023/12/02 08:33:13;;;;;;;50.40;17.63;;;;;;;;;;4982121;28;20227;-67
2023/12/02 08:35:38;;;;;;;46.17;17.00;;;;;;;;;;4985067;28;20525;-67
2023/12/02 08:38:04;;;;;;;43.93;18.00;;;;;;;;;;4990517;28;20190;-67
2023/12/02 08:40:29;;;;;;;47.33;18.30;;;;;;;;;;4987708;28;20176;-67
2023/12/02 08:42:54;;;;;;;44.80;17.53;;;;;;;;;;4987186;28;20206;-67
2023/12/02 08:45:19;;;;;;;47.10;18.20;;;;;;;;;;4987792;28;20184;-67
2023/12/02 08:47:44;;;;;;;47.27;19.10;;;;;;;;;;4988279;28;20219;-67
2023/12/02 08:50:10;;;;;;;42.00;16.20;;;;;;;;;;4989811;28;20703;-67
2023/12/02 08:52:35;;;;;;;42.63;18.07;;;;;;;;;;4990395;28;20204;-66
2023/12/02 08:55:00;;;;;;;47.97;19.77;;;;;;;;;;4988844;28;20211;-66
2023/12/02 08:57:25;;;;;;;48.43;18.80;;;;;;;;;;4992656;28;20187;-67
2023/12/02 08:59:50;;;;;;;47.83;18.87;;;;;;;;;;4991560;28;20186;-67
2023/12/02 09:02:16;;;;;;;46.27;18.43;;;;;;;;;;4992998;28;20223;-67
2023/12/02 09:04:41;;;;;;;47.30;19.60;;;;;;;;;;4993817;28;20263;-67
2023/12/02 09:07:06;;;;;;;49.67;19.23;;;;;;;;;;4993438;28;20231;-67
2023/12/02 09:09:32;;;;;;;40.73;17.83;;;;;;;;;;4992750;28;20172;-67
2023/12/02 09:11:57;;;;;;;39.47;16.77;;;;;;;;;;4994332;28;20188;-67
2023/12/02 09:14:22;;;;;;;39.83;19.00;;;;;;;;;;4993450;28;20323;-67
2023/12/02 09:16:47;;;;;;;38.40;18.33;;;;;;;;;;4993423;28;20614;-67
2023/12/02 09:19:31;;;;;;;49.40;19.47;;;;;;;;;;4991369;28;20179;-67
2023/12/02 09:21:57;;;;;;;47.87;19.57;;;;;;;;;;4991714;28;20199;-67
2023/12/02 09:24:44;;;;;;;40.70;17.00;;;;;;;;;;4987204;28;20210;-67
2023/12/02 09:27:29;;;;;;;44.67;17.20;;;;;;;;;;4987073;28;20686;-66
2023/12/02 09:29:54;;;;;;;32.03;16.27;;;;;;;;;;4993215;28;20230;-67
2023/12/02 09:32:22;;;;;;;36.27;15.50;;;;;;;;;;4992953;28;20191;-67
2023/12/02 09:34:56;;;;;;;35.47;16.40;;;;;;;;;;4994395;28;20168;-66
2023/12/02 09:37:49;;;;;;;38.30;16.97;;;;;;;;;;4992896;28;20180;-67
2023/12/02 09:40:20;;;;;;;32.73;15.53;;;;;;;;;;4988485;28;20184;-67
2023/12/02 09:42:53;;;;;;;36.77;15.27;;;;;;;;;;4992890;28;20199;-67
2023/12/02 09:45:20;;;;;;;33.80;15.10;;;;;;;;;;4994054;28;20179;-67
2023/12/02 09:47:50;;;;;;;32.43;16.47;;;;;;;;;;4993039;28;20223;-67
2023/12/02 09:50:19;;;;;;;37.00;15.80;;;;;;;;;;4992855;28;20207;-67
2023/12/02 09:53:03;;;;;;;35.60;16.33;;;;;;;;;;4993746;28;20191;-68
2023/12/02 09:55:36;;;;;;;38.13;17.23;;;;;;;;;;4992999;28;20187;-66
2023/12/02 09:58:16;;;;;;;35.20;16.47;;;;;;;;;;4989963;28;20176;-66
2023/12/02 10:01:04;;;;;;;34.07;15.43;;;;;;;;;;4988812;28;20246;-66
2023/12/02 10:03:47;;;;;;;38.57;17.67;;;;;;;;;;4991528;28;20249;-66
2023/12/02 10:06:31;;;;;;;35.60;17.17;;;;;;;;;;4984001;28;20206;-66
2023/12/02 10:09:08;;;;;;;36.37;15.87;;;;;;;;;;4992774;28;20647;-66
2023/12/02 10:11:37;;;;;;;33.30;16.13;;;;;;;;;;4990135;28;20226;-67
2023/12/02 10:14:13;;;;;;;35.03;15.97;;;;;;;;;;4992943;28;20180;-66
2023/12/02 10:16:41;;;;;;;35.03;15.93;;;;;;;;;;4991876;28;20187;-67
2023/12/02 10:19:10;;;;;;;39.27;17.00;;;;;;;;;;4996311;28;20561;-67
2023/12/02 10:21:37;;;;;;;33.27;15.87;;;;;;;;;;4991142;28;20283;-67
2023/12/02 10:24:05;;;;;;;34.43;16.70;;;;;;;;;;4990811;28;20180;-68
2023/12/02 10:26:43;;;;;;;34.10;16.23;;;;;;;;;;4985861;28;20799;-67
2023/12/02 10:29:11;;;;;;;33.57;17.23;;;;;;;;;;4990073;28;20195;-67
2023/12/02 10:31:43;;;;;;;37.73;16.27;;;;;;;;;;4995178;28;20274;-67
2023/12/02 10:34:18;;;;;;;38.57;16.43;;;;;;;;;;4986855;28;20172;-68
2023/12/02 10:36:46;;;;;;;35.80;16.53;;;;;;;;;;4990947;28;20218;-68
2023/12/02 10:39:13;;;;;;;36.63;17.43;;;;;;;;;;4990634;28;20180;-68
2023/12/02 10:41:41;;;;;;;31.50;15.37;;;;;;;;;;4990871;28;20227;-68
2023/12/02 10:44:07;;;;;;;37.83;16.03;;;;;;;;;;4989348;28;20233;-68
2023/12/02 10:46:33;;;;;;;35.73;16.03;;;;;;;;;;4989975;28;20207;-68
2023/12/02 10:48:59;;;;;;;33.03;16.40;;;;;;;;;;4990635;28;20180;-68
2023/12/02 10:51:26;;;;;;;30.50;14.80;;;;;;;;;;4994224;28;20218;-67
2023/12/02 10:53:54;;;;;;;36.57;15.00;;;;;;;;;;4991969;28;20176;-67
2023/12/02 10:56:23;;;;;;;31.30;15.33;;;;;;;;;;4990593;28;20294;-68
2023/12/02 10:58:52;;;;;;;34.27;15.43;;;;;;;;;;4991045;28;20179;-67
2023/12/02 11:01:25;;;;;;;26.87;14.27;;;;;;;;;;4991845;28;20294;-67
2023/12/02 11:03:52;;;;;;;33.57;15.00;;;;;;;;;;4992759;28;20176;-67
2023/12/02 11:06:30;;;;;;;31.17;16.17;;;;;;;;;;4990552;28;20629;-67
2023/12/02 11:09:10;;;;;;;33.17;14.83;;;;;;;;;;4991489;28;20171;-67
2023/12/02 11:11:42;;;;;;;32.60;15.97;;;;;;;;;;4991258;28;20674;-67
2023/12/02 11:14:11;;;;;;;35.00;16.17;;;;;;;;;;4991837;28;20175;-67
2023/12/02 11:16:52;;;;;;;34.10;16.80;;;;;;;;;;4989334;28;20188;-67
2023/12/02 11:19:34;;;;;;;35.77;16.50;;;;;;;;;;4988958;28;20187;-67
2023/12/02 11:22:15;;;;;;;36.77;18.07;;;;;;;;;;4987717;28;20699;-67
2023/12/02 11:25:03;;;;;;;37.23;18.53;;;;;;;;;;4988145;28;20694;-67
2023/12/02 11:27:47;;;;;;;36.57;18.97;;;;;;;;;;4989193;28;20211;-67
2023/12/02 11:30:38;;;;;;;43.17;19.70;;;;;;;;;;4988976;28;20230;-67
2023/12/02 11:33:26;;;;;;;43.50;19.97;;;;;;;;;;4991968;28;20199;-67
2023/12/02 11:36:00;;;;;;;40.33;20.80;;;;;;;;;;4991001;28;20245;-67
2023/12/02 11:38:27;;;;;;;33.37;17.73;;;;;;;;;;4990421;28;20179;-67
2023/12/02 11:41:12;;;;;;;38.03;18.13;;;;;;;;;;4990812;28;20171;-67
2023/12/02 11:43:47;;;;;;;36.57;17.97;;;;;;;;;;4988915;28;20175;-66
2023/12/02 11:46:18;;;;;;;30.13;15.13;;;;;;;;;;4990369;28;20238;-67
2023/12/02 11:49:09;;;;;;;31.60;15.80;;;;;;;;;;4990301;28;20222;-67
2023/12/02 11:51:40;;;;;;;30.60;14.67;;;;;;;;;;4990387;28;20206;-66
2023/12/02 11:54:14;;;;;;;32.27;15.47;;;;;;;;;;4991231;28;20207;-66
2023/12/02 11:56:43;;;;;;;34.23;16.30;;;;;;;;;;4989285;28;20210;-67
2023/12/02 11:59:14;;;;;;;26.97;15.17;;;;;;;;;;4981103;28;20179;-67
2023/12/02 12:01:58;;;;;;;34.23;16.23;;;;;;;;;;4987518;28;20210;-67
2023/12/02 12:04:35;;;;;;;28.07;15.07;;;;;;;;;;4991680;28;20183;-66
2023/12/02 12:07:12;;;;;;;27.73;14.53;;;;;;;;;;5004056;28;20254;-66
2023/12/02 12:09:45;;;;;;;28.07;14.27;;;;;;;;;;4989456;28;20254;-66
2023/12/02 12:12:11;;;;;;;26.63;14.87;;;;;;;;;;4988536;28;20199;-67
2023/12/02 12:14:38;;;;;;;31.27;14.87;;;;;;;;;;4988111;28;20184;-67
2023/12/02 12:17:04;;;;;;;25.10;14.60;;;;;;;;;;4981449;28;20580;-66
2023/12/02 12:19:29;;;;;;;30.60;16.60;;;;;;;;;;4985982;28;20179;-67
2023/12/02 12:21:55;;;;;;;30.63;15.63;;;;;;;;;;5000345;28;20429;-67
2023/12/02 12:24:20;;;;;;;26.80;15.03;;;;;;;;;;4984824;28;20195;-67
2023/12/02 12:26:45;;;;;;;28.60;15.00;;;;;;;;;;4989273;28;20408;-66
2023/12/02 12:29:11;;;;;;;28.60;14.43;;;;;;;;;;4990300;28;20175;-66
2023/12/02 12:31:36;;;;;;;29.40;14.30;;;;;;;;;;4993438;28;20206;-66
2023/12/02 12:34:03;;;;;;;25.90;14.60;;;;;;;;;;4990986;28;20180;-66
2023/12/02 12:36:29;;;;;;;32.53;15.90;;;;;;;;;;4994356;28;20202;-67
2023/12/02 12:38:56;;;;;;;28.20;14.30;;;;;;;;;;4988271;28;20202;-67
2023/12/02 12:41:22;;;;;;;24.53;14.23;;;;;;;;;;4991430;28;20219;-66
2023/12/02 12:43:48;;;;;;;25.83;14.80;;;;;;;;;;4988378;28;20186;-68
2023/12/02 12:46:15;;;;;;;27.63;14.57;;;;;;;;;;4991014;28;20215;-66
2023/12/02 12:48:40;;;;;;;29.93;14.53;;;;;;;;;;4991816;28;20184;-67
2023/12/02 12:51:06;;;;;;;28.73;15.83;;;;;;;;;;4992674;28;20184;-67
2023/12/02 12:53:35;;;;;;;28.90;15.73;;;;;;;;;;4992515;28;20408;-67
2023/12/02 12:56:08;;;;;;;32.90;15.40;;;;;;;;;;4989893;28;20273;-66
2023/12/02 12:58:39;;;;;;;29.67;15.67;;;;;;;;;;4992206;28;20175;-66
2023/12/02 13:01:05;;;;;;;28.07;15.00;;;;;;;;;;4986027;28;20174;-66
2023/12/02 13:03:36;;;;;;;28.50;14.97;;;;;;;;;;4987014;28;20262;-66
2023/12/02 13:06:16;;;;;;;32.67;16.07;;;;;;;;;;4988573;28;20207;-67
2023/12/02 13:08:50;;;;;;;31.23;15.50;;;;;;;;;;4992179;28;20686;-67
2023/12/02 13:11:19;;;;;;;33.23;17.47;;;;;;;;;;4989893;28;20199;-67
2023/12/02 13:13:45;;;;;;;32.20;14.73;;;;;;;;;;5003786;28;22403;-67
2023/12/02 13:16:11;;;;;;;34.27;14.70;;;;;;;;;;4992870;28;20271;-67
2023/12/02 13:18:36;;;;;;;32.77;15.07;;;;;;;;;;4991225;28;20195;-68
2023/12/02 13:21:01;;;;;;;26.50;14.33;;;;;;;;;;4987680;28;20207;-67
2023/12/02 13:23:26;;;;;;;33.00;15.70;;;;;;;;;;4992190;28;20222;-68
2023/12/02 13:25:55;;;;;;;28.90;14.73;;;;;;;;;;4991835;28;20573;-68
2023/12/02 13:28:22;;;;;;;32.63;16.80;;;;;;;;;;4990892;28;20187;-68
2023/12/02 13:30:50;;;;;;;30.80;15.07;;;;;;;;;;4990300;28;20186;-68
2023/12/02 13:33:28;;;;;;;31.23;15.87;;;;;;;;;;4991922;28;20204;-67
2023/12/02 13:36:01;;;;;;;31.70;15.50;;;;;;;;;;4988324;28;20639;-68
2023/12/02 13:38:32;;;;;;;33.33;15.60;;;;;;;;;;4989414;28;20270;-68
2023/12/02 13:41:12;;;;;;;29.60;16.17;;;;;;;;;;4987379;28;20206;-67
2023/12/02 13:43:53;;;;;;;30.63;15.93;;;;;;;;;;4990163;28;20651;-67
2023/12/02 13:46:21;;;;;;;32.37;15.97;;;;;;;;;;4989031;28;20636;-67
2023/12/02 13:49:00;;;;;;;34.87;16.20;;;;;;;;;;4991918;28;20183;-68
2023/12/02 13:51:32;;;;;;;28.73;15.67;;;;;;;;;;4987302;28;20237;-65
2023/12/02 13:54:06;;;;;;;30.10;16.27;;;;;;;;;;4985739;28;20176;-66
2023/12/02 13:56:42;;;;;;;28.57;15.30;;;;;;;;;;4991101;28;20194;-67
2023/12/02 13:59:07;;;;;;;35.80;17.07;;;;;;;;;;4987743;28;20241;-67
2023/12/02 14:01:39;;;;;;;32.70;16.63;;;;;;;;;;4988412;28;20219;-66
2023/12/02 14:04:04;;;;;;;33.50;16.83;;;;;;;;;;4990603;28;20191;-66
2023/12/02 14:06:53;;;;;;;34.60;17.03;;;;;;;;;;4992010;28;20226;-64
2023/12/02 14:09:21;;;;;;;31.37;16.23;;;;;;;;;;4990232;28;20610;-66
2023/12/02 14:11:49;;;;;;;49.03;17.73;;;;;;;;;;4983931;28;20350;-64
2023/12/02 14:14:20;;;;;;;32.97;16.83;;;;;;;;;;4987875;28;20172;-65
2023/12/02 14:16:55;;;;;;;37.87;18.57;;;;;;;;;;4988093;28;20223;-65
2023/12/02 14:19:32;;;;;;;33.17;17.73;;;;;;;;;;4989701;28;20187;-65